createdAt,value
2023-04-18T00:00:12.760Z,36.16
2023-04-18T00:02:41.594Z,35.69
2023-04-18T00:05:09.311Z,36.36
2023-04-18T00:07:36.639Z,36.75
2023-04-18T00:10:05.803Z,36.63
2023-04-18T00:12:34.544Z,36.57
2023-04-18T00:15:02.640Z,36.49
2023-04-18T00:17:34.189Z,36.46
2023-04-18T00:20:07.234Z,36.89
2023-04-18T00:22:34.794Z,37.09
2023-04-18T00:25:02.035Z,36.70
2023-04-18T00:27:31.094Z,36.82
2023-04-18T00:29:58.193Z,36.96
2023-04-18T00:32:25.346Z,36.63
2023-04-18T00:34:52.414Z,36.82
2023-04-18T00:37:19.764Z,37.00
2023-04-18T00:39:48.938Z,37.52
2023-04-18T00:42:16.527Z,37.60
2023-04-18T00:44:43.521Z,37.37
2023-04-18T00:47:10.591Z,37.47
2023-04-18T00:49:37.934Z,37.17
2023-04-18T00:52:05.084Z,37.53
2023-04-18T00:54:32.574Z,37.42
2023-04-18T00:56:59.984Z,37.48
2023-04-18T00:59:27.093Z,37.61
2023-04-18T01:01:54.264Z,37.60
2023-04-18T01:04:21.645Z,38.13
2023-04-18T01:06:48.915Z,37.93
2023-04-18T01:09:16.076Z,38.00
2023-04-18T01:11:44.929Z,38.07
2023-04-18T01:14:12.271Z,38.21
2023-04-18T01:16:40.184Z,37.95
2023-04-18T01:19:07.383Z,38.15
2023-04-18T01:21:36.300Z,38.34
2023-04-18T01:24:16.847Z,38.36
2023-04-18T01:26:47.776Z,38.59
2023-04-18T01:29:15.443Z,38.81
2023-04-18T01:31:42.611Z,38.72
2023-04-18T01:34:09.897Z,38.88
2023-04-18T01:36:38.069Z,38.55
2023-04-18T01:39:05.524Z,38.90
2023-04-18T01:41:33.196Z,39.17
2023-04-18T01:44:00.597Z,39.12
2023-04-18T01:46:28.300Z,39.16
2023-04-18T01:48:56.093Z,39.06
2023-04-18T01:51:23.595Z,39.21
2023-04-18T01:53:50.733Z,39.25
2023-04-18T01:56:17.797Z,39.10
2023-04-18T01:58:45.096Z,39.15
2023-04-18T02:01:13.259Z,39.30
2023-04-18T02:03:40.633Z,39.57
2023-04-18T02:06:08.177Z,39.73
2023-04-18T02:08:36.165Z,39.52
2023-04-18T02:11:06.235Z,39.79
2023-04-18T02:13:33.386Z,39.41
2023-04-18T02:16:00.703Z,39.83
2023-04-18T02:18:47.788Z,39.92
2023-04-18T02:21:14.702Z,39.94
2023-04-18T02:23:41.719Z,39.72
2023-04-18T02:26:08.843Z,40.57
2023-04-18T02:28:39.248Z,40.11
2023-04-18T02:31:07.463Z,40.25
2023-04-18T02:33:35.212Z,40.61
2023-04-18T02:36:02.272Z,40.04
2023-04-18T02:38:29.326Z,40.23
2023-04-18T02:40:56.383Z,40.84
2023-04-18T02:43:23.414Z,40.05
2023-04-18T02:45:50.790Z,40.67
2023-04-18T02:48:17.967Z,40.40
2023-04-18T02:50:46.090Z,40.60
2023-04-18T02:53:13.611Z,40.51
2023-04-18T02:55:53.401Z,40.23
2023-04-18T02:58:24.131Z,40.41
2023-04-18T03:01:28.379Z,40.75
2023-04-18T03:04:06.903Z,40.99
2023-04-18T03:06:38.762Z,41.15
2023-04-18T03:09:07.264Z,40.32
2023-04-18T03:11:37.480Z,40.75
2023-04-18T03:14:05.988Z,40.43
2023-04-18T03:16:44.174Z,40.48
2023-04-18T03:19:14.944Z,40.90
2023-04-18T03:21:42.142Z,40.80
2023-04-18T03:24:12.215Z,40.77
2023-04-18T03:26:41.020Z,40.91
2023-04-18T03:29:08.639Z,40.63
2023-04-18T03:31:35.930Z,40.88
2023-04-18T03:34:03.007Z,40.64
2023-04-18T03:36:31.488Z,40.30
2023-04-18T03:38:59.343Z,40.41
2023-04-18T03:41:27.250Z,40.36
2023-04-18T03:43:56.824Z,40.62
2023-04-18T03:46:24.714Z,40.48
2023-04-18T03:48:54.384Z,40.27
2023-04-18T03:51:21.822Z,40.00
2023-04-18T03:53:48.894Z,39.59
2023-04-18T03:56:17.464Z,39.41
2023-04-18T03:58:55.736Z,39.28
2023-04-18T04:01:23.347Z,39.42
2023-04-18T04:03:52.412Z,38.86
2023-04-18T04:06:20.518Z,38.98
2023-04-18T04:08:47.629Z,38.60
2023-04-18T04:11:19.440Z,38.83
2023-04-18T04:13:46.949Z,39.08
2023-04-18T04:16:16.879Z,39.06
2023-04-18T04:18:45.233Z,39.16
2023-04-18T04:21:13.640Z,38.83
2023-04-18T04:23:46.473Z,38.52
2023-04-18T04:26:26.350Z,38.83
2023-04-18T04:29:03.608Z,38.31
2023-04-18T04:31:32.738Z,38.85
2023-04-18T04:33:59.832Z,38.55
2023-04-18T04:36:27.367Z,38.19
2023-04-18T04:38:59.320Z,37.95
2023-04-18T04:41:37.713Z,37.69
2023-04-18T04:44:07.083Z,37.82
2023-04-18T04:46:39.508Z,37.74
2023-04-18T04:49:12.731Z,37.81
2023-04-18T04:51:40.337Z,38.29
2023-04-18T04:54:07.420Z,38.04
2023-04-18T04:56:34.825Z,37.89
2023-04-18T04:59:02.265Z,37.82
2023-04-18T05:01:36.528Z,37.49
2023-04-18T05:04:04.113Z,37.86
2023-04-18T05:06:31.899Z,37.71
2023-04-18T05:09:01.084Z,37.78
2023-04-18T05:11:28.473Z,37.86
2023-04-18T05:13:55.546Z,37.83
2023-04-18T05:16:22.799Z,37.64
2023-04-18T05:18:49.969Z,37.43
2023-04-18T05:21:17.007Z,37.56
2023-04-18T05:23:44.246Z,37.57
2023-04-18T05:26:11.326Z,37.77
2023-04-18T05:28:38.523Z,37.57
2023-04-18T05:31:05.793Z,37.55
2023-04-18T05:33:32.930Z,37.51
2023-04-18T05:36:00.368Z,37.74
2023-04-18T05:38:27.463Z,37.67
2023-04-18T05:40:56.017Z,37.73
2023-04-18T05:43:23.554Z,37.88
2023-04-18T05:45:52.718Z,38.00
2023-04-18T05:48:20.178Z,37.75
2023-04-18T05:50:47.543Z,37.21
2023-04-18T05:53:14.803Z,37.05
2023-04-18T05:55:42.100Z,37.39
2023-04-18T05:58:11.324Z,36.96
2023-04-18T06:00:38.370Z,36.67
2023-04-18T06:03:06.287Z,36.05
2023-04-18T06:05:35.225Z,36.40
2023-04-18T06:08:02.379Z,36.01
2023-04-18T06:10:29.811Z,35.54
2023-04-18T06:12:56.946Z,35.54
2023-04-18T06:15:24.261Z,35.48
2023-04-18T06:17:51.501Z,35.40
2023-04-18T06:20:18.673Z,35.14
2023-04-18T06:22:45.879Z,34.76
2023-04-18T06:25:13.002Z,34.58
2023-04-18T06:27:40.183Z,34.47
2023-04-18T06:30:08.376Z,34.35
2023-04-18T06:32:35.791Z,34.01
2023-04-18T06:35:03.185Z,34.57
2023-04-18T06:37:32.120Z,34.06
2023-04-18T06:39:59.229Z,32.61
2023-04-18T06:42:26.381Z,29.64
2023-04-18T06:44:54.893Z,26.85
2023-04-18T06:47:22.871Z,24.98
2023-04-18T06:49:50.048Z,23.94
2023-04-18T06:52:17.195Z,22.86
2023-04-18T06:54:44.212Z,21.81
2023-04-18T06:57:11.408Z,20.83
2023-04-18T06:59:38.684Z,20.61
2023-04-18T07:02:05.755Z,21.91
2023-04-18T07:04:32.834Z,22.82
2023-04-18T07:07:01.704Z,22.86
2023-04-18T07:09:29.056Z,21.73
2023-04-18T07:11:56.431Z,19.78
2023-04-18T07:14:24.883Z,18.83
2023-04-18T07:16:52.441Z,17.67
2023-04-18T07:19:19.537Z,16.11
2023-04-18T07:21:46.694Z,15.55
2023-04-18T07:24:14.124Z,14.76
2023-04-18T07:26:41.819Z,15.14
2023-04-18T07:29:08.957Z,16.37
2023-04-18T07:31:36.332Z,16.44
2023-04-18T07:34:03.570Z,16.61
2023-04-18T07:36:31.552Z,16.05
2023-04-18T07:38:58.637Z,15.74
2023-04-18T07:41:25.704Z,15.64
2023-04-18T07:43:52.723Z,14.92
2023-04-18T07:46:19.904Z,14.16
2023-04-18T07:48:46.971Z,14.89
2023-04-18T07:51:13.989Z,16.26
2023-04-18T07:53:43.936Z,15.71
2023-04-18T07:56:12.775Z,14.59
2023-04-18T07:58:40.145Z,14.40
2023-04-18T08:01:07.908Z,14.82
2023-04-18T08:03:36.572Z,14.28
2023-04-18T08:06:03.987Z,14.85
2023-04-18T08:08:31.426Z,15.09
2023-04-18T08:10:58.588Z,15.63
2023-04-18T08:13:25.758Z,16.55
2023-04-18T08:15:52.840Z,17.08
2023-04-18T08:18:20.186Z,17.43
2023-04-18T08:20:47.345Z,17.68
2023-04-18T08:23:17.192Z,18.24
2023-04-18T08:25:44.538Z,18.67
2023-04-18T08:28:13.230Z,19.34
2023-04-18T08:30:40.347Z,20.12
2023-04-18T08:33:07.483Z,20.51
2023-04-18T08:35:35.493Z,20.79
2023-04-18T08:38:03.010Z,21.36
2023-04-18T08:40:30.509Z,22.42
2023-04-18T08:42:58.755Z,23.12
2023-04-18T08:45:26.514Z,23.69
2023-04-18T08:47:53.799Z,24.29
2023-04-18T08:50:21.533Z,24.39
2023-04-18T08:52:51.349Z,24.78
2023-04-18T08:55:19.220Z,25.14
2023-04-18T08:57:47.709Z,25.37
2023-04-18T09:00:17.762Z,25.74
2023-04-18T09:02:47.297Z,26.32
2023-04-18T09:05:16.262Z,26.62
2023-04-18T09:07:43.532Z,26.84
2023-04-18T09:10:12.665Z,27.20
2023-04-18T09:12:53.067Z,27.18
2023-04-18T09:15:23.809Z,27.24
2023-04-18T09:17:56.463Z,27.85
2023-04-18T09:20:35.164Z,28.02
2023-04-18T09:23:05.133Z,27.80
2023-04-18T09:25:45.115Z,28.03
2023-04-18T09:28:30.547Z,28.30
2023-04-18T09:30:58.505Z,28.47
2023-04-18T09:33:34.091Z,28.35
2023-04-18T09:36:17.669Z,28.34
2023-04-18T09:38:44.829Z,28.52
2023-04-18T09:41:15.845Z,28.88
2023-04-18T09:43:44.598Z,28.56
2023-04-18T09:46:12.735Z,28.53
2023-04-18T09:48:40.961Z,28.39
2023-04-18T09:51:10.900Z,28.59
2023-04-18T09:53:40.090Z,28.73
2023-04-18T09:56:12.887Z,28.73
2023-04-18T09:58:42.600Z,28.67
2023-04-18T10:01:09.776Z,28.67
2023-04-18T10:03:47.395Z,28.76
2023-04-18T10:06:17.681Z,28.85
2023-04-18T10:08:45.833Z,28.60
2023-04-18T10:11:13.006Z,28.86
2023-04-18T10:13:43.249Z,28.87
2023-04-18T10:16:11.756Z,28.72
2023-04-18T10:18:38.990Z,28.91
2023-04-18T10:21:06.310Z,29.29
2023-04-18T10:23:36.215Z,29.04
2023-04-18T10:26:08.049Z,29.20
2023-04-18T10:28:57.581Z,28.89
2023-04-18T10:31:27.236Z,28.38
2023-04-18T10:34:05.593Z,27.82
2023-04-18T10:36:34.009Z,27.70
2023-04-18T10:39:20.014Z,27.43
2023-04-18T10:41:51.670Z,27.34
2023-04-18T10:44:22.055Z,27.62
2023-04-18T10:46:52.377Z,27.68
2023-04-18T10:49:26.276Z,28.01
2023-04-18T10:51:58.578Z,28.18
2023-04-18T10:54:37.861Z,28.01
2023-04-18T10:57:08.821Z,28.06
2023-04-18T10:59:39.070Z,28.39
2023-04-18T11:02:25.960Z,28.06
2023-04-18T11:04:55.676Z,28.34
2023-04-18T11:07:42.174Z,28.15
2023-04-18T11:10:10.152Z,29.08
2023-04-18T11:12:40.317Z,28.80
2023-04-18T11:15:17.830Z,28.94
2023-04-18T11:17:45.200Z,29.21
2023-04-18T11:20:15.155Z,29.25
2023-04-18T11:22:48.189Z,29.27
2023-04-18T11:25:16.828Z,29.55
2023-04-18T11:27:45.202Z,29.68
2023-04-18T11:30:13.472Z,29.48
2023-04-18T11:32:41.447Z,29.49
2023-04-18T11:35:10.234Z,29.47
2023-04-18T11:37:39.109Z,30.13
2023-04-18T11:40:09.514Z,29.59
2023-04-18T11:42:38.947Z,29.47
2023-04-18T11:45:24.224Z,29.40
2023-04-18T11:47:57.296Z,29.93
2023-04-18T11:50:25.420Z,29.75
2023-04-18T11:52:54.802Z,29.48
2023-04-18T11:55:24.943Z,29.43
2023-04-18T11:57:54.168Z,29.33
2023-04-18T12:00:38.644Z,29.74
2023-04-18T12:03:13.354Z,29.48
2023-04-18T12:05:42.752Z,29.85
2023-04-18T12:08:12.003Z,29.86
2023-04-18T12:10:53.549Z,29.83
2023-04-18T12:13:32.637Z,29.55
2023-04-18T12:16:02.512Z,29.96
2023-04-18T12:18:30.050Z,29.95
2023-04-18T12:20:58.734Z,29.67
2023-04-18T12:23:34.016Z,29.59
2023-04-18T12:26:15.274Z,29.78
2023-04-18T12:28:46.039Z,29.94
2023-04-18T12:31:13.157Z,30.32
2023-04-18T12:33:40.511Z,30.25
2023-04-18T12:36:11.385Z,30.51
2023-04-18T12:38:38.642Z,30.49
2023-04-18T12:41:05.878Z,30.20
2023-04-18T12:43:33.207Z,30.47
2023-04-18T12:46:00.425Z,30.38
2023-04-18T12:48:27.574Z,30.26
2023-04-18T12:50:54.534Z,30.79
2023-04-18T12:53:21.757Z,30.66
2023-04-18T12:55:48.955Z,30.77
2023-04-18T12:58:18.813Z,30.74
2023-04-18T13:00:46.339Z,30.90
2023-04-18T13:03:13.768Z,30.47
2023-04-18T13:05:41.333Z,30.47
2023-04-18T13:08:17.183Z,30.52
2023-04-18T13:10:48.706Z,30.82
2023-04-18T13:13:16.195Z,30.78
2023-04-18T13:15:43.458Z,30.90
2023-04-18T13:18:10.487Z,30.90
2023-04-18T13:20:37.674Z,30.84
2023-04-18T13:23:05.328Z,30.95
2023-04-18T13:25:32.592Z,31.19
2023-04-18T13:28:01.042Z,31.12
2023-04-18T13:30:29.265Z,31.17
2023-04-18T13:32:56.901Z,31.30
2023-04-18T13:35:24.470Z,31.24
2023-04-18T13:37:51.666Z,31.18
2023-04-18T13:40:18.743Z,31.23
2023-04-18T13:42:45.831Z,31.80
2023-04-18T13:45:12.882Z,31.52
2023-04-18T13:47:40.055Z,31.33
2023-04-18T13:50:08.193Z,31.46
2023-04-18T13:52:35.442Z,31.71
2023-04-18T13:55:02.412Z,31.95
2023-04-18T13:57:32.396Z,32.23
2023-04-18T13:59:59.548Z,32.39
2023-04-18T14:02:26.905Z,32.86
2023-04-18T14:04:55.015Z,32.51
2023-04-18T14:07:22.169Z,32.92
2023-04-18T14:09:49.331Z,32.79
2023-04-18T14:12:16.410Z,32.81
2023-04-18T14:14:43.384Z,32.77
2023-04-18T14:17:10.450Z,32.88
2023-04-18T14:19:37.545Z,33.04
2023-04-18T14:22:04.552Z,33.16
2023-04-18T14:24:31.626Z,32.92
2023-04-18T14:26:58.714Z,33.17
2023-04-18T14:29:25.834Z,32.73
2023-04-18T14:31:52.880Z,32.71
2023-04-18T14:34:19.930Z,32.96
2023-04-18T14:36:47.023Z,32.99
2023-04-18T14:39:14.442Z,32.92
2023-04-18T14:56:43.780Z,33.03
2023-04-18T14:59:15.559Z,33.48
2023-04-18T15:01:43.853Z,33.75
2023-04-18T15:04:11.080Z,33.76
2023-04-18T15:06:38.702Z,34.75
2023-04-18T15:09:06.753Z,33.81
2023-04-18T15:11:34.053Z,34.13
2023-04-18T15:14:01.376Z,34.18
2023-04-18T15:16:28.930Z,34.05
2023-04-18T15:18:56.044Z,33.61
2023-04-18T15:21:23.171Z,33.77
2023-04-18T15:23:50.616Z,33.74
2023-04-18T15:26:17.839Z,33.67
2023-04-18T15:28:45.506Z,33.69
2023-04-18T15:31:12.933Z,33.67
2023-04-18T15:33:40.279Z,33.54
2023-04-18T15:36:07.557Z,34.43
2023-04-18T15:38:34.964Z,34.30
2023-04-18T15:41:02.234Z,33.90
2023-04-18T15:43:29.341Z,34.12
2023-04-18T15:45:56.457Z,34.10
2023-04-18T15:48:23.706Z,34.22
2023-04-18T15:50:52.199Z,34.04
2023-04-18T15:53:19.475Z,34.17
2023-04-18T15:55:49.392Z,34.91
2023-04-18T15:58:16.578Z,34.26
2023-04-18T16:00:44.427Z,34.44
2023-04-18T16:03:12.347Z,34.70
2023-04-18T16:05:39.695Z,34.02
2023-04-18T16:08:08.943Z,34.23
2023-04-18T16:10:37.035Z,34.20
2023-04-18T16:13:04.552Z,34.39
2023-04-18T16:15:32.048Z,34.47
2023-04-18T16:17:59.135Z,34.59
2023-04-18T16:20:27.483Z,34.40
2023-04-18T16:22:54.670Z,34.58
2023-04-18T16:25:21.825Z,34.67
2023-04-18T16:27:48.859Z,34.51
2023-04-18T16:30:16.241Z,34.84
2023-04-18T16:32:43.941Z,34.69
2023-04-18T16:35:11.253Z,34.96
2023-04-18T16:37:39.961Z,35.13
2023-04-18T16:40:10.248Z,34.85
2023-04-18T16:42:37.539Z,34.95
2023-04-18T16:45:04.922Z,35.32
2023-04-18T16:47:35.036Z,35.30
2023-04-18T16:50:02.271Z,35.58
2023-04-18T16:52:31.455Z,35.79
2023-04-18T16:54:58.515Z,35.93
2023-04-18T16:57:25.783Z,35.87
2023-04-18T16:59:52.913Z,35.69
2023-04-18T17:02:20.176Z,35.92
2023-04-18T17:04:47.693Z,36.07
2023-04-18T17:07:14.947Z,35.60
2023-04-18T17:09:42.161Z,35.99
2023-04-18T17:12:09.223Z,36.19
2023-04-18T17:14:37.287Z,36.06
2023-04-18T17:17:04.535Z,35.71
2023-04-18T17:19:31.948Z,35.99
2023-04-18T17:21:59.028Z,35.66
2023-04-18T17:24:26.428Z,35.63
2023-04-18T17:26:53.481Z,35.69
2023-04-18T17:29:23.069Z,35.86
2023-04-18T17:31:51.380Z,35.74
2023-04-18T17:34:18.582Z,35.67
2023-04-18T17:36:45.807Z,35.94
2023-04-18T17:39:13.506Z,35.69
2023-04-18T17:41:40.804Z,35.91
2023-04-18T17:44:08.612Z,35.94
2023-04-18T17:46:36.212Z,35.50
2023-04-18T17:49:04.478Z,35.76
2023-04-18T17:51:31.710Z,36.06
2023-04-18T17:53:58.841Z,35.84
2023-04-18T17:56:27.059Z,36.02
2023-04-18T17:58:56.567Z,35.98
2023-04-18T18:01:24.966Z,35.93
2023-04-18T18:03:54.065Z,36.04
2023-04-18T18:06:21.799Z,36.32
2023-04-18T18:08:48.954Z,36.38
2023-04-18T18:11:16.421Z,36.59
2023-04-18T18:13:43.852Z,36.46
2023-04-18T18:16:11.168Z,36.68
2023-04-18T18:18:39.042Z,36.66
2023-04-18T18:21:06.146Z,36.73
2023-04-18T18:23:33.402Z,36.57
2023-04-18T18:26:01.868Z,36.83
2023-04-18T18:28:29.075Z,36.84
2023-04-18T18:30:56.229Z,36.67
2023-04-18T18:33:24.178Z,37.08
2023-04-18T18:35:51.414Z,36.77
2023-04-18T18:38:18.679Z,36.75
2023-04-18T18:40:46.264Z,36.77
2023-04-18T18:43:13.529Z,36.31
2023-04-18T18:45:40.943Z,36.59
2023-04-18T18:48:08.876Z,36.71
2023-04-18T18:50:36.183Z,36.52
2023-04-18T18:53:03.268Z,36.50
2023-04-18T18:55:30.423Z,36.51
2023-04-18T18:57:57.624Z,36.29
2023-04-18T19:00:25.013Z,36.14
2023-04-18T19:02:52.291Z,36.22
2023-04-18T19:05:19.702Z,36.07
2023-04-18T19:07:46.798Z,36.00
2023-04-18T19:10:13.848Z,36.32
2023-04-18T19:12:40.891Z,36.19
2023-04-18T19:15:08.722Z,36.06
2023-04-18T19:17:35.985Z,35.82
2023-04-18T19:20:03.665Z,35.98
2023-04-18T19:22:32.409Z,35.82
2023-04-18T19:25:00.837Z,35.71
2023-04-18T19:27:28.077Z,35.58
2023-04-18T19:29:55.316Z,35.56
2023-04-18T19:32:22.519Z,35.36
2023-04-18T19:34:51.213Z,34.67
2023-04-18T19:37:18.378Z,35.01
2023-04-18T19:39:45.493Z,34.83
2023-04-18T19:42:12.564Z,34.92
2023-04-18T19:44:39.662Z,35.09
2023-04-18T19:47:06.813Z,34.85
2023-04-18T19:49:33.956Z,34.81
2023-04-18T19:52:01.187Z,34.85
2023-04-18T19:54:28.344Z,34.69
2023-04-18T19:56:55.474Z,34.93
2023-04-18T19:59:22.541Z,34.83
2023-04-18T20:01:49.872Z,34.76
2023-04-18T20:04:17.144Z,34.88
2023-04-18T20:06:44.692Z,34.66
2023-04-18T20:09:16.842Z,34.83
2023-04-18T20:11:44.231Z,34.68
2023-04-18T20:14:11.225Z,34.57
2023-04-18T20:16:39.197Z,34.72
2023-04-18T20:19:06.347Z,35.05
2023-04-18T20:21:33.427Z,34.86
2023-04-18T20:24:00.700Z,34.50
2023-04-18T20:26:27.871Z,34.52
2023-04-18T20:28:54.987Z,34.40
2023-04-18T20:31:22.094Z,34.68
2023-04-18T20:33:49.303Z,34.72
2023-04-18T20:36:17.856Z,34.75
2023-04-18T20:38:45.056Z,34.63
2023-04-18T20:41:15.121Z,34.62
2023-04-18T20:43:43.294Z,34.58
2023-04-18T20:46:13.248Z,34.72
2023-04-18T20:48:40.659Z,34.88
2023-04-18T20:51:07.656Z,34.72
2023-04-18T20:53:34.685Z,34.86
2023-04-18T20:56:03.132Z,34.89
2023-04-18T20:58:30.476Z,35.12
2023-04-18T21:00:57.537Z,35.29
2023-04-18T21:03:25.068Z,35.44
2023-04-18T21:05:52.793Z,34.99
2023-04-18T21:08:19.940Z,35.06
2023-04-18T21:10:47.026Z,34.82
2023-04-18T21:13:14.165Z,34.78
2023-04-18T21:15:42.346Z,34.97
2023-04-18T21:18:09.884Z,34.86
2023-04-18T21:20:37.324Z,35.18
2023-04-18T21:23:04.443Z,35.01
2023-04-18T21:25:31.467Z,34.99
2023-04-18T21:27:58.620Z,34.69
2023-04-18T21:30:25.897Z,35.03
2023-04-18T21:32:53.206Z,35.18
2023-04-18T21:35:22.638Z,35.66
2023-04-18T21:37:51.375Z,35.12
2023-04-18T21:40:18.582Z,35.22
2023-04-18T21:42:46.194Z,35.03
2023-04-18T21:45:13.866Z,34.77
2023-04-18T21:47:41.175Z,34.44
2023-04-18T21:50:09.213Z,34.73
2023-04-18T21:52:37.129Z,34.42
2023-04-18T21:55:05.132Z,34.48
2023-04-18T21:57:33.266Z,34.86
2023-04-18T22:00:00.345Z,35.37
2023-04-18T22:02:27.876Z,34.75
2023-04-18T22:04:55.695Z,34.82
2023-04-18T22:07:24.741Z,34.44
2023-04-18T22:09:52.023Z,34.55
2023-04-18T22:12:19.367Z,34.66
2023-04-18T22:14:48.581Z,34.48
2023-04-18T22:17:16.008Z,34.68
2023-04-18T22:19:44.674Z,34.55
2023-04-18T22:22:12.249Z,34.33
2023-04-18T22:24:39.698Z,34.37
2023-04-18T22:27:07.252Z,34.25
2023-04-18T22:29:34.464Z,34.39
2023-04-18T22:32:01.703Z,34.30
2023-04-18T22:34:28.889Z,34.28
2023-04-18T22:36:55.978Z,34.09
2023-04-18T22:39:23.047Z,34.17
2023-04-18T22:41:50.327Z,33.97
2023-04-18T22:44:17.550Z,34.42
2023-04-18T22:46:45.702Z,34.06
2023-04-18T22:49:12.884Z,34.04
2023-04-18T22:51:40.163Z,33.79
2023-04-18T22:54:07.516Z,33.64
2023-04-18T22:56:34.770Z,33.84
2023-04-18T22:59:01.819Z,33.89
2023-04-18T23:01:28.924Z,33.45
2023-04-18T23:03:56.308Z,33.58
2023-04-18T23:06:23.880Z,33.79
2023-04-18T23:08:51.081Z,33.68
2023-04-18T23:11:18.275Z,33.80
2023-04-18T23:13:45.479Z,33.73
2023-04-18T23:16:12.629Z,33.47
2023-04-18T23:18:39.818Z,33.58
2023-04-18T23:21:17.506Z,33.66
2023-04-18T23:23:44.951Z,33.44
2023-04-18T23:26:16.394Z,33.57
2023-04-18T23:28:43.775Z,33.63
2023-04-18T23:31:11.339Z,33.18
2023-04-18T23:33:38.585Z,33.37
2023-04-18T23:36:06.690Z,33.65
2023-04-18T23:38:34.135Z,33.79
2023-04-18T23:41:01.560Z,33.66
2023-04-18T23:43:29.244Z,33.42
2023-04-18T23:45:56.849Z,33.63
2023-04-18T23:52:51.775Z,33.66
2023-04-18T23:55:19.351Z,33.88
2023-04-18T23:57:46.449Z,33.91
